sensor_id;sensor_type;location;lat;lon;timestamp;pressure;altitude;pressure_sealevel;temperature;humidity
54022;BME280;39936;51.058;17.220;2022-07-22T13:10:56;101578.58;;;32.31;35.98
54022;BME280;39936;51.058;17.220;2022-07-22T13:14:10;101575.38;;;32.44;39.01
54022;BME280;39936;51.058;17.220;2022-07-22T13:17:58;101572.42;;;32.30;37.80
54022;BME280;39936;51.058;17.220;2022-07-22T13:21:39;101571.67;;;32.39;35.90
54022;BME280;39936;51.058;17.220;2022-07-22T13:24:55;101569.66;;;32.41;37.96
54022;BME280;39936;51.058;17.220;2022-07-22T13:28:45;101563.65;;;32.43;36.97
54022;BME280;39936;51.058;17.220;2022-07-22T13:32:21;101573.29;;;32.20;35.42
54022;BME280;39936;51.058;17.220;2022-07-22T13:36:05;101581.23;;;31.53;36.12
54022;BME280;39936;51.058;17.220;2022-07-22T13:39:38;101580.93;;;31.43;36.86
54022;BME280;39936;51.058;17.220;2022-07-22T13:43:19;101583.80;;;31.43;34.91
54022;BME280;39936;51.058;17.220;2022-07-22T13:47:04;101579.73;;;31.63;34.91
54022;BME280;39936;51.058;17.220;2022-07-22T13:50:29;101579.51;;;31.71;34.12
54022;BME280;39936;51.058;17.220;2022-07-22T13:54:13;101578.36;;;31.40;34.78
54022;BME280;39936;51.058;17.220;2022-07-22T13:57:28;101579.27;;;30.98;35.19
54022;BME280;39936;51.058;17.220;2022-07-22T14:01:10;101578.14;;;30.94;34.39
54022;BME280;39936;51.058;17.220;2022-07-22T14:04:52;101578.12;;;30.21;35.94
54022;BME280;39936;51.058;17.220;2022-07-22T14:08:20;101576.51;;;29.83;36.41
54022;BME280;39936;51.058;17.220;2022-07-22T14:12:09;101578.12;;;29.68;37.55
54022;BME280;39936;51.058;17.220;2022-07-22T14:16:00;101576.14;;;29.75;37.70
54022;BME280;39936;51.058;17.220;2022-07-22T14:19:23;101571.88;;;30.08;36.48
54022;BME280;39936;51.058;17.220;2022-07-22T14:23:07;101569.88;;;30.21;36.69
54022;BME280;39936;51.058;17.220;2022-07-22T14:26:37;101568.70;;;30.30;36.72
54022;BME280;39936;51.058;17.220;2022-07-22T14:30:37;101566.34;;;30.69;36.62
54022;BME280;39936;51.058;17.220;2022-07-22T14:34:02;101562.02;;;30.97;35.15
54022;BME280;39936;51.058;17.220;2022-07-22T14:37:32;101561.32;;;30.76;34.99
54022;BME280;39936;51.058;17.220;2022-07-22T14:41:17;101553.59;;;31.14;35.32
54022;BME280;39936;51.058;17.220;2022-07-22T14:44:58;101551.97;;;31.25;34.97
54022;BME280;39936;51.058;17.220;2022-07-22T14:48:43;101544.06;;;31.76;34.01
54022;BME280;39936;51.058;17.220;2022-07-22T14:52:23;101540.50;;;31.98;34.36
54022;BME280;39936;51.058;17.220;2022-07-22T14:56:08;101537.79;;;31.96;35.12
54022;BME280;39936;51.058;17.220;2022-07-22T14:59:46;101536.77;;;31.89;34.36
54022;BME280;39936;51.058;17.220;2022-07-22T15:03:23;101530.92;;;32.21;34.59
54022;BME280;39936;51.058;17.220;2022-07-22T15:07:34;101518.75;;;31.42;34.06
54022;BME280;39936;51.058;17.220;2022-07-22T15:10:47;101538.02;;;31.06;34.42
54022;BME280;39936;51.058;17.220;2022-07-22T15:14:42;101540.22;;;30.68;35.92
54022;BME280;39936;51.058;17.220;2022-07-22T15:18:07;101541.01;;;30.72;36.01
54022;BME280;39936;51.058;17.220;2022-07-22T15:21:38;101539.88;;;30.45;35.42
54022;BME280;39936;51.058;17.220;2022-07-22T15:25:09;101536.59;;;30.55;36.42
54022;BME280;39936;51.058;17.220;2022-07-22T15:28:46;101529.84;;;30.77;37.53
54022;BME280;39936;51.058;17.220;2022-07-22T15:35:26;101523.41;;;31.28;35.32
54022;BME280;39936;51.058;17.220;2022-07-22T15:38:42;101517.20;;;31.46;34.04
54022;BME280;39936;51.058;17.220;2022-07-22T15:41:56;101519.13;;;30.98;34.53
54022;BME280;39936;51.058;17.220;2022-07-22T15:45:21;101516.03;;;30.77;35.75
54022;BME280;39936;51.058;17.220;2022-07-22T15:49:03;101513.26;;;30.79;35.43
54022;BME280;39936;51.058;17.220;2022-07-22T15:53:04;101514.00;;;31.09;36.26
54022;BME280;39936;51.058;17.220;2022-07-22T15:56:19;101518.41;;;30.88;35.38
54022;BME280;39936;51.058;17.220;2022-07-22T16:00:22;101516.48;;;30.86;35.32
54022;BME280;39936;51.058;17.220;2022-07-22T16:03:53;101500.61;;;31.32;35.04
54022;BME280;39936;51.058;17.220;2022-07-22T16:07:16;101504.73;;;30.99;35.12
54022;BME280;39936;51.058;17.220;2022-07-22T16:10:39;101505.01;;;31.04;35.30
54022;BME280;39936;51.058;17.220;2022-07-22T16:14:54;101503.73;;;31.27;35.64
54022;BME280;39936;51.058;17.220;2022-07-22T16:18:32;101494.87;;;31.41;34.56
54022;BME280;39936;51.058;17.220;2022-07-22T16:29:42;101490.84;;;31.29;33.93
54022;BME280;39936;51.058;17.220;2022-07-22T16:33:30;101494.37;;;31.47;35.09
54022;BME280;39936;51.058;17.220;2022-07-22T16:37:26;101491.13;;;31.41;34.87
54022;BME280;39936;51.058;17.220;2022-07-22T16:41:04;101470.68;;;30.87;35.25
54022;BME280;39936;51.058;17.220;2022-07-22T16:45:15;101496.30;;;30.70;35.85
54022;BME280;39936;51.058;17.220;2022-07-22T16:49:43;101503.37;;;30.45;36.48
54022;BME280;39936;51.058;17.220;2022-07-22T17:00:26;101494.01;;;31.17;36.18
54022;BME280;39936;51.058;17.220;2022-07-22T17:04:58;101487.48;;;31.34;34.65
54022;BME280;39936;51.058;17.220;2022-07-22T17:08:14;101494.18;;;30.92;36.07
54022;BME280;39936;51.058;17.220;2022-07-22T17:11:57;101496.21;;;30.82;36.70
54022;BME280;39936;51.058;17.220;2022-07-22T17:15:57;101493.14;;;31.05;35.50
54022;BME280;39936;51.058;17.220;2022-07-22T17:19:45;101487.33;;;31.21;35.50
54022;BME280;39936;51.058;17.220;2022-07-22T17:23:13;101493.46;;;31.08;35.54
54022;BME280;39936;51.058;17.220;2022-07-22T17:27:06;101492.16;;;30.94;35.74
54022;BME280;39936;51.058;17.220;2022-07-22T17:30:32;101492.41;;;30.87;36.09
54022;BME280;39936;51.058;17.220;2022-07-22T17:34:27;101499.47;;;30.74;36.50
54022;BME280;39936;51.058;17.220;2022-07-22T17:38:07;101503.23;;;30.60;36.58
54022;BME280;39936;51.058;17.220;2022-07-22T17:41:30;101502.48;;;30.49;36.79
54022;BME280;39936;51.058;17.220;2022-07-22T17:44:58;101510.02;;;30.47;37.02
54022;BME280;39936;51.058;17.220;2022-07-22T17:48:22;101510.91;;;30.51;37.13
54022;BME280;39936;51.058;17.220;2022-07-22T17:52:20;101513.67;;;30.62;36.94
54022;BME280;39936;51.058;17.220;2022-07-22T17:56:31;101519.74;;;30.59;36.96
54022;BME280;39936;51.058;17.220;2022-07-22T18:00:14;101523.67;;;30.44;37.37
54022;BME280;39936;51.058;17.220;2022-07-22T18:03:54;101521.12;;;30.32;37.71
54022;BME280;39936;51.058;17.220;2022-07-22T18:07:45;101520.00;;;30.37;37.97
54022;BME280;39936;51.058;17.220;2022-07-22T18:12:02;101524.37;;;30.12;38.63
54022;BME280;39936;51.058;17.220;2022-07-22T18:15:38;101528.20;;;29.66;39.36
54022;BME280;39936;51.058;17.220;2022-07-22T18:19:00;101528.10;;;29.40;39.91
54022;BME280;39936;51.058;17.220;2022-07-22T18:22:27;101530.03;;;29.29;40.26
54022;BME280;39936;51.058;17.220;2022-07-22T18:25:47;101513.29;;;29.01;40.64
54022;BME280;39936;51.058;17.220;2022-07-22T18:29:22;101534.88;;;29.00;40.97
54022;BME280;39936;51.058;17.220;2022-07-22T18:32:55;101540.62;;;28.27;42.60
54022;BME280;39936;51.058;17.220;2022-07-22T18:36:41;101540.97;;;27.94;43.17
54022;BME280;39936;51.058;17.220;2022-07-22T18:40:49;101542.76;;;27.82;43.38
54022;BME280;39936;51.058;17.220;2022-07-22T18:44:10;101544.58;;;27.61;43.83
54022;BME280;39936;51.058;17.220;2022-07-22T18:47:21;101548.09;;;27.37;44.33
54022;BME280;39936;51.058;17.220;2022-07-22T18:51:25;101556.24;;;27.08;45.56
54022;BME280;39936;51.058;17.220;2022-07-22T18:54:40;101561.03;;;26.87;46.12
54022;BME280;39936;51.058;17.220;2022-07-22T18:58:06;101568.86;;;26.54;47.74
54022;BME280;39936;51.058;17.220;2022-07-22T19:02:17;101573.44;;;26.15;47.90
54022;BME280;39936;51.058;17.220;2022-07-22T19:05:58;101572.20;;;25.91;48.70
54022;BME280;39936;51.058;17.220;2022-07-22T19:09:29;101569.42;;;25.73;49.13
54022;BME280;39936;51.058;17.220;2022-07-22T19:12:46;101574.63;;;25.63;48.97
54022;BME280;39936;51.058;17.220;2022-07-22T19:16:22;101581.06;;;25.59;49.54
54022;BME280;39936;51.058;17.220;2022-07-22T19:20:31;101584.05;;;25.49;49.80
54022;BME280;39936;51.058;17.220;2022-07-22T19:25:05;101584.78;;;25.31;49.85
54022;BME280;39936;51.058;17.220;2022-07-22T19:29:16;101586.73;;;25.16;50.32
54022;BME280;39936;51.058;17.220;2022-07-22T19:33:35;101585.61;;;25.00;52.49
54022;BME280;39936;51.058;17.220;2022-07-22T19:36:58;101590.05;;;24.92;53.58
54022;BME280;39936;51.058;17.220;2022-07-22T19:40:29;101588.96;;;24.75;53.83
54022;BME280;39936;51.058;17.220;2022-07-22T19:44:11;101589.70;;;24.56;54.81
54022;BME280;39936;51.058;17.220;2022-07-22T19:47:21;101594.57;;;24.33;55.43
54022;BME280;39936;51.058;17.220;2022-07-22T19:50:33;101598.08;;;24.13;56.10
54022;BME280;39936;51.058;17.220;2022-07-22T19:54:12;101598.61;;;23.94;56.67
54022;BME280;39936;51.058;17.220;2022-07-22T19:57:51;101605.38;;;23.79;57.10
54022;BME280;39936;51.058;17.220;2022-07-22T20:01:21;101603.43;;;23.59;58.03
54022;BME280;39936;51.058;17.220;2022-07-22T20:04:42;101609.56;;;23.50;58.74
54022;BME280;39936;51.058;17.220;2022-07-22T20:07:55;101612.84;;;23.52;58.98
54022;BME280;39936;51.058;17.220;2022-07-22T20:11:12;101615.00;;;23.52;59.06
54022;BME280;39936;51.058;17.220;2022-07-22T20:14:24;101613.41;;;23.49;59.73
54022;BME280;39936;51.058;17.220;2022-07-22T20:21:35;101611.76;;;23.31;60.64
54022;BME280;39936;51.058;17.220;2022-07-22T20:24:51;101618.03;;;23.11;61.87
54022;BME280;39936;51.058;17.220;2022-07-22T20:29:07;101621.86;;;22.87;62.49
54022;BME280;39936;51.058;17.220;2022-07-22T20:32:42;101629.19;;;22.77;62.60
54022;BME280;39936;51.058;17.220;2022-07-22T20:36:40;101634.66;;;22.75;62.05
54022;BME280;39936;51.058;17.220;2022-07-22T20:40:49;101644.13;;;22.73;62.27
54022;BME280;39936;51.058;17.220;2022-07-22T20:44:14;101655.21;;;22.68;63.69
54022;BME280;39936;51.058;17.220;2022-07-22T20:47:26;101657.14;;;22.63;63.98
54022;BME280;39936;51.058;17.220;2022-07-22T20:50:45;101659.23;;;22.60;63.31
54022;BME280;39936;51.058;17.220;2022-07-22T20:54:05;101660.08;;;22.52;63.13
54022;BME280;39936;51.058;17.220;2022-07-22T20:57:39;101654.02;;;22.38;63.81
54022;BME280;39936;51.058;17.220;2022-07-22T21:01:15;101656.83;;;22.25;65.24
54022;BME280;39936;51.058;17.220;2022-07-22T21:05:20;101654.08;;;22.13;66.26
54022;BME280;39936;51.058;17.220;2022-07-22T21:08:38;101651.91;;;22.07;66.30
54022;BME280;39936;51.058;17.220;2022-07-22T21:12:11;101653.48;;;21.92;67.88
54022;BME280;39936;51.058;17.220;2022-07-22T21:16:12;101658.58;;;21.57;69.37
54022;BME280;39936;51.058;17.220;2022-07-22T21:20:11;101660.18;;;21.42;68.18
54022;BME280;39936;51.058;17.220;2022-07-22T21:23:20;101662.02;;;21.34;68.93
54022;BME280;39936;51.058;17.220;2022-07-22T21:26:32;101668.85;;;21.31;69.47
54022;BME280;39936;51.058;17.220;2022-07-22T21:30:13;101670.86;;;21.26;69.71
54022;BME280;39936;51.058;17.220;2022-07-22T21:33:21;101674.22;;;21.21;69.98
54022;BME280;39936;51.058;17.220;2022-07-22T21:36:34;101674.20;;;21.19;71.09
54022;BME280;39936;51.058;17.220;2022-07-22T21:40:37;101672.44;;;21.13;70.93
54022;BME280;39936;51.058;17.220;2022-07-22T21:45:02;101674.57;;;20.95;71.26
54022;BME280;39936;51.058;17.220;2022-07-22T21:48:33;101674.95;;;20.87;72.01
54022;BME280;39936;51.058;17.220;2022-07-22T21:51:42;101678.84;;;20.75;72.59
54022;BME280;39936;51.058;17.220;2022-07-22T21:55:40;101684.19;;;20.58;73.90
54022;BME280;39936;51.058;17.220;2022-07-22T21:59:24;101682.95;;;20.38;75.86
54022;BME280;39936;51.058;17.220;2022-07-22T22:02:37;101689.71;;;20.20;76.37
54022;BME280;39936;51.058;17.220;2022-07-22T22:06:28;101684.84;;;20.00;76.50
54022;BME280;39936;51.058;17.220;2022-07-22T22:10:38;101690.63;;;19.89;77.02
54022;BME280;39936;51.058;17.220;2022-07-22T22:14:23;101691.95;;;19.81;79.65
54022;BME280;39936;51.058;17.220;2022-07-22T22:18:07;101691.34;;;19.74;80.90
54022;BME280;39936;51.058;17.220;2022-07-22T22:25:16;101697.52;;;19.67;81.18
54022;BME280;39936;51.058;17.220;2022-07-22T22:28:47;101695.20;;;19.62;81.42
54022;BME280;39936;51.058;17.220;2022-07-22T22:32:00;101700.16;;;19.55;81.17
54022;BME280;39936;51.058;17.220;2022-07-22T22:35:19;101702.29;;;19.46;80.87
54022;BME280;39936;51.058;17.220;2022-07-22T22:39:03;101697.91;;;19.37;80.38
54022;BME280;39936;51.058;17.220;2022-07-22T22:42:18;101703.84;;;19.29;80.39
54022;BME280;39936;51.058;17.220;2022-07-22T22:46:12;101709.88;;;19.28;81.26
54022;BME280;39936;51.058;17.220;2022-07-22T22:54:04;101704.17;;;19.17;82.39
54022;BME280;39936;51.058;17.220;2022-07-22T23:00:11;101699.26;;;19.08;83.31
54022;BME280;39936;51.058;17.220;2022-07-22T23:03:51;101694.98;;;18.91;86.12
54022;BME280;39936;51.058;17.220;2022-07-22T23:07:31;101700.08;;;18.87;85.66
54022;BME280;39936;51.058;17.220;2022-07-22T23:10:47;101699.29;;;18.83;85.56
54022;BME280;39936;51.058;17.220;2022-07-22T23:14:17;101703.27;;;18.74;85.29
54022;BME280;39936;51.058;17.220;2022-07-22T23:18:10;101708.79;;;18.61;84.91
54022;BME280;39936;51.058;17.220;2022-07-22T23:21:21;101709.68;;;18.52;84.84
54022;BME280;39936;51.058;17.220;2022-07-22T23:25:29;101710.59;;;18.44;85.69
54022;BME280;39936;51.058;17.220;2022-07-22T23:29:57;101712.54;;;18.40;86.56
54022;BME280;39936;51.058;17.220;2022-07-22T23:33:06;101713.66;;;18.39;86.38
54022;BME280;39936;51.058;17.220;2022-07-22T23:36:21;101715.86;;;18.36;86.10
54022;BME280;39936;51.058;17.220;2022-07-22T23:40:23;101714.78;;;18.30;86.20
54022;BME280;39936;51.058;17.220;2022-07-22T23:43:50;101708.27;;;18.21;86.39
54022;BME280;39936;51.058;17.220;2022-07-22T23:47:07;101705.46;;;18.11;87.94
54022;BME280;39936;51.058;17.220;2022-07-22T23:50:46;101694.95;;;17.99;90.08
54022;BME280;39936;51.058;17.220;2022-07-22T23:54:20;101685.21;;;17.87;92.12
54022;BME280;39936;51.058;17.220;2022-07-22T23:57:49;101683.09;;;17.77;92.74
